| time (UTC) | temp F | wind direction | speed MPH | gust MPH | rain 1hr in | rain 24hr in | rain mn in | humidity % | barometer mb |
| 20260509042407 | 68 | 129 | 2.0 | 5.0 | 0.00 | 0.09 | 0.09 | 90 | 1008.9 |
| 20260509041903 | 68 | 97 | 0.0 | 0.0 | 0.00 | 0.09 | 0.09 | 90 | 1009.0 |
| 20260509041401 | 69 | 136 | 2.0 | 2.0 | 0.00 | 0.09 | 0.09 | 90 | 1008.5 |
| 20260509040858 | 69 | 141 | 1.0 | 1.0 | 0.00 | 0.09 | 0.09 | 89 | 1008.6 |
| 20260509040356 | 69 | 143 | 1.0 | 2.0 | 0.00 | 0.09 | 0.09 | 89 | 1008.7 |
| 20260509035853 | 69 | 140 | 3.0 | 3.0 | 0.00 | 0.09 | 0.09 | 89 | 1008.4 |
| 20260509035350 | 69 | 155 | 3.0 | 3.0 | 0.00 | 0.09 | 0.09 | 88 | 1008.2 |
| 20260509034846 | 70 | 168 | 3.0 | 5.0 | 0.00 | 0.09 | 0.09 | 88 | 1008.7 |
| 20260509034344 | 70 | 157 | 2.0 | 3.0 | 0.00 | 0.09 | 0.09 | 88 | 1008.3 |
| 20260509033840 | 69 | 150 | 0.0 | 0.0 | 0.00 | 0.09 | 0.09 | 89 | 1008.4 |
| 20260509033338 | 69 | 140 | 0.0 | 0.0 | 0.00 | 0.09 | 0.09 | 89 | 1008.3 |
| 20260509032834 | 69 | 154 | 3.0 | 5.0 | 0.00 | 0.09 | 0.09 | 89 | 1008.1 |
| 20260509032332 | 69 | 159 | 4.0 | 5.0 | 0.00 | 0.09 | 0.09 | 88 | 1008.0 |
| 20260509031830 | 69 | 143 | 4.0 | 5.0 | 0.00 | 0.09 | 0.09 | 88 | 1008.2 |
| 20260509031326 | 69 | 162 | 4.0 | 6.0 | 0.00 | 0.09 | 0.09 | 88 | 1008.0 |
| 20260509030824 | 70 | 155 | 3.0 | 5.0 | 0.00 | 0.09 | 0.09 | 88 | 1007.8 |
| 20260509030322 | 70 | 144 | 0.0 | 1.0 | 0.00 | 0.09 | 0.09 | 87 | 1007.7 |
| 20260509025818 | 70 | 145 | 2.0 | 5.0 | 0.00 | 0.09 | 0.09 | 87 | 1007.9 |
| 20260509025314 | 69 | 149 | 1.0 | 1.0 | 0.00 | 0.09 | 0.09 | 88 | 1007.6 |
| 20260509024810 | 69 | 136 | 0.0 | 0.0 | 0.00 | 0.09 | 0.09 | 88 | 1007.5 |
| 20260509024306 | 69 | 145 | 2.0 | 3.0 | 0.00 | 0.09 | 0.09 | 88 | 1007.4 |
| 20260509023803 | 69 | 147 | 1.0 | 1.0 | 0.00 | 0.09 | 0.09 | 88 | 1007.7 |
| 20260509023300 | 69 | 163 | 1.0 | 3.0 | 0.00 | 0.09 | 0.09 | 88 | 1007.5 |
| 20260509022756 | 69 | 154 | 1.0 | 1.0 | 0.00 | 0.09 | 0.09 | 88 | 1007.6 |
| 20260509022254 | 69 | 142 | 0.0 | 1.0 | 0.00 | 0.09 | 0.09 | 88 | 1007.3 |
| 20260509021751 | 69 | 164 | 2.0 | 2.0 | 0.00 | 0.09 | 0.09 | 88 | 1007.6 |
| 20260509021248 | 69 | 160 | 4.0 | 5.0 | 0.00 | 0.09 | 0.09 | 88 | 1007.8 |
| 20260509020746 | 69 | 169 | 3.0 | 5.0 | 0.00 | 0.09 | 0.09 | 87 | 1007.5 |
| 20260509020243 | 69 | 155 | 2.0 | 3.0 | 0.00 | 0.09 | 0.09 | 87 | 1007.5 |
| 20260509015741 | 70 | 156 | 2.0 | 3.0 | 0.00 | 0.09 | 0.09 | 86 | 1007.5 |
| 20260509015239 | 70 | 143 | 2.0 | 2.0 | 0.00 | 0.09 | 0.09 | 86 | 1007.5 |
| 20260509014735 | 70 | 148 | 3.0 | 5.0 | 0.00 | 0.09 | 0.09 | 85 | 1007.5 |
| 20260509014232 | 71 | 143 | 1.0 | 2.0 | 0.00 | 0.09 | 0.09 | 85 | 1007.3 |
| 20260509013729 | 71 | 143 | 1.0 | 2.0 | 0.00 | 0.09 | 0.09 | 85 | 1007.7 |
| 20260509013224 | 71 | 133 | 1.0 | 1.0 | 0.00 | 0.09 | 0.09 | 85 | 1007.7 |
| 20260509012721 | 71 | 156 | 3.0 | 5.0 | 0.00 | 0.09 | 0.09 | 84 | 1007.5 |
| 20260509012218 | 71 | 163 | 3.0 | 3.0 | 0.00 | 0.09 | 0.09 | 84 | 1007.4 |
| 20260509011715 | 72 | 160 | 2.0 | 2.0 | 0.00 | 0.09 | 0.09 | 83 | 1007.6 |
| 20260509011213 | 73 | 152 | 2.0 | 3.0 | 0.00 | 0.09 | 0.09 | 81 | 1007.5 |
| 20260509010711 | 73 | 162 | 5.0 | 5.0 | 0.00 | 0.09 | 0.09 | 81 | 1007.2 |
| 20260509010207 | 73 | 164 | 4.0 | 5.0 | 0.00 | 0.09 | 0.09 | 81 | 1007.6 |
| 20260509005704 | 74 | 167 | 3.0 | 6.0 | 0.00 | 0.09 | 0.09 | 80 | 1007.4 |
| 20260509005201 | 74 | 145 | 3.0 | 3.0 | 0.00 | 0.09 | 0.09 | 79 | 1007.4 |
| 20260509004656 | 75 | 141 | 0.0 | 0.0 | 0.00 | 0.09 | 0.09 | 78 | 1007.3 |
| 20260509004154 | 75 | 145 | 4.0 | 6.0 | 0.00 | 0.09 | 0.09 | 77 | 1007.2 |
| 20260509003652 | 76 | 155 | 0.0 | 1.0 | 0.00 | 0.09 | 0.09 | 77 | 1007.1 |
| 20260509003149 | 76 | 156 | 2.0 | 3.0 | 0.00 | 0.09 | 0.09 | 77 | 1007.0 |
| 20260509002646 | 76 | 151 | 0.0 | 0.0 | 0.00 | 0.09 | 0.09 | 76 | 1007.3 |
| 20260509002143 | 77 | 149 | 3.0 | 6.0 | 0.00 | 0.09 | 0.09 | 75 | 1007.1 |
| 20260509001641 | 77 | 147 | 0.0 | 0.0 | 0.00 | 0.09 | 0.09 | 75 | 1007.2 |
| 20260509001136 | 76 | 175 | 4.0 | 7.0 | 0.00 | 0.09 | 0.09 | 75 | 1007.2 |
| 20260509000635 | 76 | 108 | 0.0 | 1.0 | 0.00 | 0.09 | 0.09 | 75 | 1007.3 |
| 20260509000131 | 77 | 167 | 3.0 | 5.0 | 0.00 | 0.09 | 0.09 | 74 | 1007.0 |
| 20260508235629 | 77 | 166 | 1.0 | 2.0 | 0.00 | 0.09 | 0.09 | 76 | 1007.2 |
| 20260508235125 | 77 | 176 | 2.0 | 6.0 | 0.00 | 0.09 | 0.09 | 75 | 1007.2 |
| 20260508234623 | 78 | 133 | 0.0 | 0.0 | 0.00 | 0.09 | 0.09 | 74 | 1007.0 |
| 20260508234119 | 78 | 164 | 0.0 | 0.0 | 0.00 | 0.09 | 0.09 | 74 | 1007.1 |
| 20260508233619 | 78 | 167 | 0.0 | 0.0 | 0.00 | 0.09 | 0.09 | 75 | 1007.4 |
| 20260508233116 | 78 | 155 | 0.0 | 0.0 | 0.00 | 0.09 | 0.09 | 73 | 1007.1 |
| 20260508232613 | 78 | 167 | 0.0 | 0.0 | 0.00 | 0.09 | 0.09 | 74 | 1007.2 |
| 20260508232109 | 79 | 146 | 8.0 | 11.0 | 0.00 | 0.09 | 0.09 | 73 | 1007.2 |
| 20260508231607 | 78 | 176 | 0.0 | 0.0 | 0.00 | 0.09 | 0.09 | 73 | 1007.4 |
| 20260508231104 | 79 | 165 | 1.0 | 3.0 | 0.00 | 0.09 | 0.09 | 73 | 1007.3 |
| 20260508230600 | 79 | 148 | 0.0 | 0.0 | 0.00 | 0.09 | 0.09 | 72 | 1007.4 |
| 20260508230057 | 79 | 161 | 0.0 | 0.0 | 0.00 | 0.09 | 0.09 | 72 | 1007.4 |
| 20260508225555 | 79 | 140 | 10.0 | 14.0 | 0.00 | 0.09 | 0.09 | 72 | 1007.1 |
| 20260508225051 | 80 | 153 | 0.0 | 0.0 | 0.00 | 0.09 | 0.09 | 71 | 1007.0 |
| 20260508224549 | 79 | 175 | 1.0 | 3.0 | 0.00 | 0.09 | 0.09 | 72 | 1007.3 |
| 20260508224046 | 79 | 207 | 6.0 | 10.0 | 0.00 | 0.09 | 0.09 | 72 | 1007.2 |
| 20260508223544 | 78 | 164 | 1.0 | 2.0 | 0.00 | 0.09 | 0.09 | 73 | 1007.4 |
| 20260508223041 | 79 | 156 | 1.0 | 3.0 | 0.00 | 0.09 | 0.09 | 71 | 1007.5 |
| 20260508222538 | 79 | 143 | 0.0 | 1.0 | 0.00 | 0.09 | 0.09 | 71 | 1007.3 |
| 20260508222035 | 79 | 156 | 1.0 | 2.0 | 0.00 | 0.09 | 0.09 | 70 | 1007.2 |
| 20260508221531 | 80 | 165 | 3.0 | 10.0 | 0.00 | 0.09 | 0.09 | 69 | 1007.4 |
| 20260508221027 | 80 | 160 | 2.0 | 3.0 | 0.00 | 0.09 | 0.09 | 68 | 1007.4 |
| 20260508220524 | 82 | 158 | 2.0 | 5.0 | 0.00 | 0.09 | 0.09 | 65 | 1007.4 |
| 20260508220020 | 81 | 193 | 7.0 | 11.0 | 0.00 | 0.09 | 0.09 | 67 | 1007.6 |
| 20260508215517 | 81 | 165 | 0.0 | 0.0 | 0.00 | 0.09 | 0.09 | 67 | 1007.4 |
| 20260508215014 | 81 | 191 | 0.0 | 0.0 | 0.00 | 0.09 | 0.09 | 68 | 1007.5 |
| 20260508214511 | 82 | 164 | 1.0 | 3.0 | 0.00 | 0.09 | 0.09 | 64 | 1007.4 |
| 20260508214007 | 81 | 147 | 3.0 | 3.0 | 0.00 | 0.09 | 0.09 | 66 | 1007.3 |
| 20260508213505 | 79 | 137 | 2.0 | 3.0 | 0.00 | 0.09 | 0.09 | 67 | 1007.3 |
| 20260508213000 | 80 | 204 | 2.0 | 3.0 | 0.00 | 0.09 | 0.09 | 68 | 1007.2 |
| 20260508212457 | 80 | 117 | 0.0 | 0.0 | 0.00 | 0.09 | 0.09 | 67 | 1007.3 |
| 20260508211953 | 80 | 159 | 0.0 | 0.0 | 0.00 | 0.09 | 0.09 | 68 | 1007.4 |
| 20260508211449 | 79 | 127 | 1.0 | 2.0 | 0.00 | 0.09 | 0.09 | 68 | 1007.5 |
| 20260508210946 | 81 | 148 | 0.0 | 1.0 | 0.00 | 0.09 | 0.09 | 68 | 1007.5 |
| 20260508210443 | 82 | 162 | 5.0 | 7.0 | 0.00 | 0.09 | 0.09 | 64 | 1007.6 |
| 20260508205939 | 82 | 168 | 0.0 | 1.0 | 0.00 | 0.09 | 0.09 | 64 | 1007.5 |
| 20260508205436 | 81 | 153 | 0.0 | 2.0 | 0.00 | 0.09 | 0.09 | 66 | 1007.7 |
| 20260508204932 | 81 | 185 | 3.0 | 6.0 | 0.00 | 0.09 | 0.09 | 66 | 1007.8 |
| 20260508204430 | 81 | 133 | 3.0 | 6.0 | 0.00 | 0.09 | 0.09 | 66 | 1008.0 |
| 20260508203925 | 81 | 164 | 1.0 | 2.0 | 0.00 | 0.09 | 0.09 | 66 | 1008.0 |
| 20260508203422 | 81 | 134 | 1.0 | 2.0 | 0.00 | 0.09 | 0.09 | 67 | 1008.0 |
| 20260508202918 | 80 | 143 | 2.0 | 5.0 | 0.00 | 0.09 | 0.09 | 68 | 1008.1 |
| 20260508202415 | 80 | 146 | 0.0 | 0.0 | 0.00 | 0.09 | 0.09 | 68 | 1008.2 |
| 20260508201912 | 80 | 177 | 0.0 | 0.0 | 0.00 | 0.09 | 0.09 | 66 | 1008.4 |
| 20260508201409 | 78 | 148 | 0.0 | 2.0 | 0.00 | 0.09 | 0.09 | 69 | 1008.7 |
| 20260508200905 | 77 | 156 | 0.0 | 0.0 | 0.00 | 0.09 | 0.09 | 72 | 1008.7 |
| 20260508200402 | 78 | 171 | 1.0 | 3.0 | 0.00 | 0.09 | 0.09 | 70 | 1008.8 |
| 20260508195857 | 79 | 154 | 5.0 | 8.0 | 0.00 | 0.09 | 0.09 | 70 | 1009.0 |
| 20260508195354 | 79 | 154 | 0.0 | 0.0 | 0.00 | 0.09 | 0.09 | 67 | 1009.0 |
| 20260508194851 | 78 | 159 | 0.0 | 0.0 | 0.00 | 0.09 | 0.09 | 70 | 1009.1 |
| 20260508194348 | 78 | 138 | 0.0 | 1.0 | 0.00 | 0.09 | 0.09 | 68 | 1009.1 |
| 20260508193845 | 78 | 144 | 0.0 | 0.0 | 0.00 | 0.09 | 0.09 | 68 | 1009.3 |
| 20260508193342 | 78 | 166 | 3.0 | 8.0 | 0.00 | 0.09 | 0.09 | 69 | 1009.5 |
| 20260508192838 | 79 | 144 | 0.0 | 2.0 | 0.00 | 0.09 | 0.09 | 68 | 1009.5 |
| 20260508192335 | 78 | 140 | 0.0 | 2.0 | 0.00 | 0.09 | 0.09 | 70 | 1009.3 |
| 20260508191832 | 77 | 166 | 0.0 | 0.0 | 0.00 | 0.09 | 0.09 | 71 | 1009.3 |
| 20260508191330 | 78 | 143 | 1.0 | 3.0 | 0.00 | 0.09 | 0.09 | 68 | 1009.5 |
| 20260508190827 | 79 | 115 | 0.0 | 0.0 | 0.00 | 0.09 | 0.09 | 68 | 1009.5 |
| 20260508190323 | 80 | 144 | 0.0 | 0.0 | 0.00 | 0.09 | 0.09 | 68 | 1009.3 |
| 20260508185819 | 78 | 149 | 1.0 | 2.0 | 0.00 | 0.09 | 0.09 | 67 | 1009.3 |
| 20260508185317 | 78 | 151 | 1.0 | 3.0 | 0.00 | 0.09 | 0.09 | 68 | 1009.5 |
| 20260508184814 | 77 | 166 | 3.0 | 6.0 | 0.00 | 0.09 | 0.09 | 68 | 1009.9 |
| 20260508184312 | 77 | 138 | 0.0 | 0.0 | 0.00 | 0.09 | 0.09 | 69 | 1009.9 |
| 20260508183808 | 77 | 154 | 1.0 | 2.0 | 0.00 | 0.09 | 0.09 | 69 | 1010.0 |
| 20260508183305 | 76 | 143 | 0.0 | 0.0 | 0.00 | 0.09 | 0.09 | 69 | 1010.1 |
| 20260508182800 | 76 | 163 | 1.0 | 3.0 | 0.00 | 0.09 | 0.09 | 69 | 1010.0 |
| 20260508182257 | 75 | 137 | 0.0 | 0.0 | 0.00 | 0.09 | 0.09 | 71 | 1010.3 |
| 20260508181753 | 76 | 218 | 0.0 | 0.0 | 0.00 | 0.09 | 0.09 | 68 | 1010.2 |
| 20260508181250 | 77 | 216 | 1.0 | 2.0 | 0.00 | 0.09 | 0.09 | 66 | 1010.3 |
| 20260508180747 | 77 | 139 | 0.0 | 0.0 | 0.00 | 0.09 | 0.09 | 68 | 1010.2 |
| 20260508180244 | 78 | 201 | 0.0 | 0.0 | 0.00 | 0.09 | 0.09 | 65 | 1010.2 |
| 20260508175740 | 78 | 133 | 0.0 | 1.0 | 0.00 | 0.09 | 0.09 | 67 | 1010.4 |
| 20260508175237 | 77 | 128 | 1.0 | 3.0 | 0.00 | 0.09 | 0.09 | 68 | 1010.6 |
| 20260508174735 | 76 | 157 | 0.0 | 0.0 | 0.00 | 0.09 | 0.09 | 69 | 1010.6 |
| 20260508174232 | 75 | 179 | 0.0 | 0.0 | 0.00 | 0.09 | 0.09 | 70 | 1010.8 |
| 20260508173728 | 77 | 225 | 1.0 | 2.0 | 0.00 | 0.09 | 0.09 | 67 | 1011.1 |
| 20260508173224 | 74 | 156 | 0.0 | 0.0 | 0.00 | 0.09 | 0.09 | 73 | 1011.0 |
| 20260508172721 | 74 | 117 | 1.0 | 2.0 | 0.00 | 0.09 | 0.09 | 70 | 1011.1 |
| 20260508172218 | 74 | 216 | 2.0 | 2.0 | 0.00 | 0.09 | 0.09 | 71 | 1011.3 |
| 20260508171715 | 73 | 204 | 2.0 | 3.0 | 0.00 | 0.09 | 0.09 | 71 | 1011.5 |
| 20260508171211 | 72 | 150 | 0.0 | 0.0 | 0.00 | 0.09 | 0.09 | 71 | 1011.6 |
| 20260508170708 | 72 | 155 | 3.0 | 5.0 | 0.00 | 0.09 | 0.09 | 72 | 1011.6 |
| 20260508170206 | 72 | 120 | 0.0 | 0.0 | 0.00 | 0.09 | 0.09 | 72 | 1011.6 |
| 20260508165702 | 72 | 146 | 0.0 | 0.0 | 0.00 | 0.09 | 0.09 | 72 | 1011.7 |
| 20260508165159 | 73 | 134 | 0.0 | 0.0 | 0.00 | 0.09 | 0.09 | 72 | 1011.9 |
| 20260508164656 | 72 | 144 | 0.0 | 1.0 | 0.00 | 0.09 | 0.09 | 71 | 1011.7 |
| 20260508164152 | 74 | 160 | 0.0 | 1.0 | 0.00 | 0.09 | 0.09 | 68 | 1011.5 |
| 20260508163651 | 72 | 136 | 0.0 | 0.0 | 0.00 | 0.09 | 0.09 | 70 | 1011.9 |
| 20260508163148 | 72 | 141 | 0.0 | 0.0 | 0.00 | 0.09 | 0.09 | 70 | 1011.9 |
| 20260508162643 | 73 | 141 | 0.0 | 0.0 | 0.00 | 0.09 | 0.09 | 70 | 1011.9 |
| 20260508162140 | 72 | 141 | 0.0 | 0.0 | 0.00 | 0.09 | 0.09 | 70 | 1012.0 |
| 20260508161637 | 70 | 144 | 0.0 | 0.0 | 0.00 | 0.09 | 0.09 | 74 | 1012.1 |
| 20260508161135 | 72 | 150 | 0.0 | 0.0 | 0.00 | 0.09 | 0.09 | 72 | 1012.2 |
| 20260508160633 | 71 | 132 | 0.0 | 0.0 | 0.00 | 0.09 | 0.09 | 73 | 1012.2 |
| 20260508160131 | 72 | 123 | 0.0 | 0.0 | 0.00 | 0.09 | 0.09 | 73 | 1012.0 |
| 20260508155627 | 72 | 195 | 0.0 | 0.0 | 0.00 | 0.09 | 0.09 | 73 | 1012.1 |
| 20260508155124 | 71 | 139 | 0.0 | 1.0 | 0.00 | 0.09 | 0.09 | 74 | 1012.4 |
| 20260508154621 | 71 | 135 | 0.0 | 0.0 | 0.00 | 0.09 | 0.09 | 74 | 1012.1 |
| 20260508154118 | 71 | 156 | 0.0 | 1.0 | 0.00 | 0.09 | 0.09 | 72 | 1012.4 |
| 20260508153615 | 72 | 133 | 1.0 | 1.0 | 0.00 | 0.09 | 0.09 | 74 | 1012.3 |
| 20260508153112 | 71 | 153 | 0.0 | 0.0 | 0.00 | 0.09 | 0.09 | 74 | 1012.1 |
| 20260508152608 | 69 | 158 | 0.0 | 1.0 | 0.00 | 0.09 | 0.09 | 74 | 1012.6 |
| 20260508152103 | 68 | 199 | 0.0 | 1.0 | 0.00 | 0.09 | 0.09 | 78 | 1012.7 |
| 20260508151601 | 68 | 160 | 0.0 | 0.0 | 0.00 | 0.09 | 0.09 | 79 | 1012.7 |
| 20260508151058 | 68 | 154 | 0.0 | 0.0 | 0.00 | 0.09 | 0.09 | 75 | 1012.7 |
| 20260508150555 | 68 | 132 | 0.0 | 0.0 | 0.00 | 0.09 | 0.09 | 75 | 1012.7 |
| 20260508150050 | 68 | 137 | 0.0 | 0.0 | 0.00 | 0.09 | 0.09 | 76 | 1012.7 |
| 20260508145547 | 68 | 182 | 0.0 | 0.0 | 0.00 | 0.09 | 0.09 | 77 | 1012.7 |
| 20260508145044 | 68 | 146 | 0.0 | 0.0 | 0.00 | 0.09 | 0.09 | 75 | 1012.8 |
| 20260508144542 | 68 | 148 | 0.0 | 0.0 | 0.00 | 0.09 | 0.09 | 76 | 1012.9 |
| 20260508144039 | 67 | 156 | 0.0 | 0.0 | 0.00 | 0.09 | 0.09 | 76 | 1013.0 |
| 20260508143536 | 66 | 148 | 0.0 | 0.0 | 0.00 | 0.09 | 0.09 | 79 | 1013.0 |
| 20260508143032 | 66 | 205 | 0.0 | 0.0 | 0.00 | 0.09 | 0.09 | 77 | 1012.8 |
| 20260508142530 | 66 | 128 | 0.0 | 0.0 | 0.00 | 0.09 | 0.09 | 77 | 1013.0 |
| 20260508142026 | 66 | 128 | 0.0 | 0.0 | 0.00 | 0.09 | 0.09 | 76 | 1013.5 |
| 20260508141522 | 66 | 133 | 1.0 | 1.0 | 0.00 | 0.09 | 0.09 | 78 | 1013.4 |
| 20260508141020 | 64 | 136 | 6.0 | 6.0 | 0.00 | 0.09 | 0.09 | 79 | 1013.5 |
| 20260508140518 | 64 | 173 | 2.0 | 2.0 | 0.00 | 0.09 | 0.09 | 80 | 1013.7 |
| 20260508140014 | 64 | 139 | 0.0 | 1.0 | 0.00 | 0.09 | 0.09 | 80 | 1013.7 |
| 20260508135509 | 64 | 158 | 2.0 | 2.0 | 0.00 | 0.09 | 0.09 | 80 | 1013.6 |
| 20260508135006 | 64 | 192 | 0.0 | 0.0 | 0.00 | 0.09 | 0.09 | 80 | 1013.8 |
| 20260508134502 | 64 | 139 | 1.0 | 3.0 | 0.00 | 0.09 | 0.09 | 80 | 1013.8 |
| 20260508133959 | 64 | 157 | 0.0 | 1.0 | 0.00 | 0.09 | 0.09 | 80 | 1013.7 |
| 20260508133457 | 64 | 142 | 0.0 | 0.0 | 0.00 | 0.09 | 0.09 | 81 | 1013.7 |
| 20260508132953 | 63 | 131 | 0.0 | 0.0 | 0.00 | 0.09 | 0.09 | 82 | 1013.6 |
| 20260508132452 | 62 | 159 | 0.0 | 0.0 | 0.00 | 0.09 | 0.09 | 84 | 1013.7 |
| 20260508131948 | 62 | 130 | 0.0 | 0.0 | 0.00 | 0.09 | 0.09 | 85 | 1013.5 |
| 20260508131443 | 62 | 162 | 0.0 | 0.0 | 0.00 | 0.09 | 0.09 | 84 | 1013.6 |
| 20260508130940 | 62 | 81 | 0.0 | 0.0 | 0.00 | 0.09 | 0.09 | 85 | 1013.4 |
| 20260508130437 | 62 | 111 | 0.0 | 0.0 | 0.00 | 0.09 | 0.09 | 85 | 1013.5 |
| 20260508125933 | 62 | 116 | 0.0 | 0.0 | 0.00 | 0.09 | 0.09 | 85 | 1013.3 |
| 20260508125429 | 62 | 120 | 0.0 | 0.0 | 0.00 | 0.09 | 0.09 | 85 | 1013.2 |
| 20260508124927 | 61 | 123 | 0.0 | 0.0 | 0.00 | 0.09 | 0.09 | 87 | 1013.2 |
| 20260508124425 | 60 | 140 | 0.0 | 0.0 | 0.00 | 0.09 | 0.09 | 88 | 1012.9 |
| 20260508123922 | 59 | 133 | 0.0 | 0.0 | 0.00 | 0.09 | 0.09 | 89 | 1012.9 |
| 20260508123421 | 59 | 122 | 0.0 | 0.0 | 0.00 | 0.09 | 0.09 | 90 | 1012.8 |
| 20260508122917 | 59 | 132 | 0.0 | 0.0 | 0.00 | 0.09 | 0.09 | 91 | 1012.9 |
| 20260508122414 | 58 | 133 | 0.0 | 0.0 | 0.00 | 0.09 | 0.09 | 91 | 1013.0 |
| 20260508121911 | 58 | 133 | 0.0 | 0.0 | 0.00 | 0.09 | 0.09 | 91 | 1012.9 |
| 20260508121409 | 58 | 132 | 0.0 | 0.0 | 0.00 | 0.09 | 0.09 | 92 | 1013.2 |
| 20260508120906 | 58 | 132 | 0.0 | 0.0 | 0.00 | 0.09 | 0.09 | 92 | 1012.8 |
| 20260508120404 | 57 | 132 | 0.0 | 0.0 | 0.00 | 0.09 | 0.09 | 92 | 1012.8 |
| 20260508115901 | 58 | 133 | 0.0 | 0.0 | 0.00 | 0.09 | 0.09 | 92 | 1013.0 |
| 20260508115359 | 58 | 134 | 0.0 | 0.0 | 0.00 | 0.09 | 0.09 | 92 | 1012.9 |
| 20260508114855 | 58 | 145 | 0.0 | 0.0 | 0.00 | 0.09 | 0.09 | 91 | 1013.2 |
| 20260508114352 | 58 | 141 | 0.0 | 0.0 | 0.00 | 0.09 | 0.09 | 91 | 1013.0 |
| 20260508113849 | 58 | 158 | 0.0 | 0.0 | 0.00 | 0.09 | 0.09 | 91 | 1013.3 |
| 20260508113347 | 58 | 138 | 0.0 | 0.0 | 0.00 | 0.09 | 0.09 | 91 | 1013.4 |
| 20260508112844 | 58 | 137 | 0.0 | 0.0 | 0.00 | 0.09 | 0.09 | 91 | 1013.4 |
| 20260508112341 | 58 | 161 | 0.0 | 0.0 | 0.00 | 0.09 | 0.09 | 92 | 1012.9 |
| 20260508111837 | 58 | 143 | 0.0 | 0.0 | 0.00 | 0.09 | 0.09 | 92 | 1013.3 |
| 20260508111334 | 58 | 125 | 0.0 | 0.0 | 0.00 | 0.09 | 0.09 | 92 | 1013.3 |
| 20260508110831 | 58 | 123 | 0.0 | 0.0 | 0.00 | 0.09 | 0.09 | 92 | 1013.2 |
| 20260508110329 | 58 | 117 | 0.0 | 0.0 | 0.00 | 0.09 | 0.09 | 92 | 1013.3 |
| 20260508105829 | 58 | 117 | 0.0 | 0.0 | 0.00 | 0.09 | 0.09 | 92 | 1013.3 |
| 20260508105326 | 58 | 150 | 0.0 | 0.0 | 0.00 | 0.09 | 0.09 | 92 | 1013.5 |
| 20260508104822 | 58 | 137 | 0.0 | 0.0 | 0.00 | 0.09 | 0.09 | 92 | 1013.4 |
| 20260508104319 | 58 | 137 | 0.0 | 0.0 | 0.00 | 0.09 | 0.09 | 92 | 1013.2 |
| 20260508103816 | 58 | 137 | 0.0 | 0.0 | 0.00 | 0.09 | 0.09 | 92 | 1013.2 |
| 20260508103313 | 57 | 137 | 0.0 | 0.0 | 0.00 | 0.09 | 0.09 | 92 | 1013.3 |
| 20260508102811 | 57 | 136 | 0.0 | 0.0 | 0.00 | 0.09 | 0.09 | 93 | 1013.5 |
| 20260508102309 | 57 | 138 | 0.0 | 0.0 | 0.00 | 0.09 | 0.09 | 93 | 1013.4 |
| 20260508101806 | 57 | 135 | 0.0 | 0.0 | 0.00 | 0.09 | 0.09 | 93 | 1013.6 |
| 20260508101303 | 57 | 135 | 0.0 | 0.0 | 0.00 | 0.09 | 0.09 | 93 | 1013.4 |
| 20260508100801 | 57 | 136 | 0.0 | 0.0 | 0.00 | 0.09 | 0.09 | 93 | 1013.6 |
| 20260508100259 | 57 | 139 | 0.0 | 0.0 | 0.00 | 0.09 | 0.09 | 93 | 1013.5 |
| 20260508095754 | 57 | 148 | 0.0 | 0.0 | 0.00 | 0.09 | 0.09 | 93 | 1013.0 |
| 20260508095252 | 57 | 140 | 0.0 | 0.0 | 0.00 | 0.09 | 0.09 | 93 | 1013.4 |
| 20260508094749 | 57 | 133 | 0.0 | 0.0 | 0.00 | 0.09 | 0.09 | 93 | 1013.8 |
| 20260508094246 | 57 | 133 | 0.0 | 0.0 | 0.00 | 0.09 | 0.09 | 93 | 1013.6 |
| 20260508093743 | 57 | 136 | 0.0 | 0.0 | 0.00 | 0.09 | 0.09 | 93 | 1013.6 |
| 20260508093241 | 57 | 154 | 0.0 | 0.0 | 0.00 | 0.09 | 0.09 | 93 | 1013.3 |
| 20260508092737 | 57 | 145 | 0.0 | 0.0 | 0.00 | 0.09 | 0.09 | 93 | 1013.2 |
| 20260508092236 | 57 | 150 | 0.0 | 0.0 | 0.00 | 0.09 | 0.09 | 93 | 1013.4 |
| 20260508091733 | 58 | 121 | 0.0 | 0.0 | 0.00 | 0.09 | 0.09 | 93 | 1013.0 |
| 20260508091230 | 58 | 124 | 0.0 | 0.0 | 0.00 | 0.09 | 0.09 | 93 | 1013.7 |
| 20260508090728 | 58 | 123 | 0.0 | 0.0 | 0.00 | 0.09 | 0.09 | 93 | 1013.4 |
| 20260508090225 | 58 | 146 | 0.0 | 0.0 | 0.00 | 0.09 | 0.09 | 93 | 1013.7 |
| 20260508085721 | 58 | 117 | 0.0 | 0.0 | 0.00 | 0.09 | 0.09 | 93 | 1013.7 |
| 20260508085219 | 58 | 118 | 0.0 | 0.0 | 0.00 | 0.09 | 0.09 | 93 | 1013.6 |
| 20260508084714 | 58 | 157 | 0.0 | 0.0 | 0.00 | 0.09 | 0.09 | 93 | 1013.4 |
| 20260508084212 | 57 | 149 | 0.0 | 0.0 | 0.00 | 0.09 | 0.09 | 93 | 1013.5 |
| 20260508083709 | 58 | 125 | 0.0 | 0.0 | 0.00 | 0.09 | 0.09 | 93 | 1013.7 |
| 20260508083207 | 57 | 116 | 0.0 | 0.0 | 0.00 | 0.09 | 0.09 | 93 | 1013.4 |
| 20260508082701 | 57 | 116 | 0.0 | 0.0 | 0.00 | 0.09 | 0.09 | 92 | 1013.3 |
| 20260508082159 | 57 | 116 | 0.0 | 0.0 | 0.00 | 0.09 | 0.09 | 92 | 1013.6 |
| 20260508081657 | 57 | 118 | 0.0 | 0.0 | 0.00 | 0.09 | 0.09 | 92 | 1013.6 |
| 20260508081153 | 57 | 131 | 0.0 | 0.0 | 0.00 | 0.09 | 0.09 | 92 | 1013.5 |
| 20260508080650 | 57 | 160 | 0.0 | 0.0 | 0.00 | 0.09 | 0.09 | 92 | 1013.6 |
| 20260508080149 | 57 | 154 | 0.0 | 0.0 | 0.00 | 0.09 | 0.09 | 92 | 1013.6 |
| 20260508075644 | 57 | 156 | 0.0 | 0.0 | 0.00 | 0.09 | 0.09 | 92 | 1013.7 |
| 20260508075142 | 57 | 149 | 0.0 | 0.0 | 0.00 | 0.09 | 0.09 | 92 | 1013.8 |
| 20260508074639 | 57 | 153 | 0.0 | 0.0 | 0.00 | 0.09 | 0.09 | 92 | 1013.7 |
| 20260508074136 | 57 | 108 | 0.0 | 0.0 | 0.00 | 0.09 | 0.09 | 92 | 1013.9 |
| 20260508073633 | 57 | 107 | 0.0 | 0.0 | 0.00 | 0.09 | 0.09 | 92 | 1014.0 |
| 20260508073131 | 57 | 112 | 0.0 | 0.0 | 0.00 | 0.09 | 0.09 | 92 | 1014.0 |
| 20260508072626 | 57 | 105 | 0.0 | 0.0 | 0.00 | 0.09 | 0.09 | 92 | 1014.0 |
| 20260508072124 | 57 | 86 | 0.0 | 0.0 | 0.00 | 0.09 | 0.09 | 92 | 1014.1 |
| 20260508071621 | 57 | 49 | 0.0 | 0.0 | 0.00 | 0.09 | 0.09 | 92 | 1014.2 |
| 20260508071120 | 57 | 63 | 0.0 | 0.0 | 0.00 | 0.09 | 0.09 | 92 | 1014.1 |
| 20260508070617 | 57 | 111 | 0.0 | 0.0 | 0.00 | 0.09 | 0.09 | 92 | 1014.3 |
| 20260508070115 | 57 | 131 | 0.0 | 0.0 | 0.00 | 0.09 | 0.09 | 92 | 1014.1 |
| 20260508065612 | 57 | 129 | 0.0 | 0.0 | 0.00 | 0.09 | 0.09 | 92 | 1014.3 |
| 20260508065110 | 57 | 131 | 0.0 | 0.0 | 0.00 | 0.09 | 0.09 | 92 | 1014.5 |
| 20260508064607 | 57 | 131 | 0.0 | 0.0 | 0.00 | 0.09 | 0.09 | 91 | 1014.4 |
| 20260508064105 | 57 | 117 | 0.0 | 0.0 | 0.00 | 0.09 | 0.09 | 91 | 1014.4 |
| 20260508063602 | 58 | 88 | 0.0 | 0.0 | 0.00 | 0.09 | 0.09 | 91 | 1014.7 |
| 20260508063100 | 58 | 83 | 0.0 | 0.0 | 0.00 | 0.09 | 0.09 | 91 | 1014.4 |
| 20260508062558 | 58 | 80 | 0.0 | 0.0 | 0.00 | 0.09 | 0.09 | 91 | 1014.3 |
| 20260508062054 | 58 | 83 | 0.0 | 0.0 | 0.00 | 0.09 | 0.09 | 91 | 1014.6 |
| 20260508061552 | 58 | 83 | 0.0 | 0.0 | 0.07 | 0.09 | 0.09 | 90 | 1014.6 |
| 20260508061048 | 59 | 112 | 0.0 | 0.0 | 0.54 | 0.09 | 0.09 | 89 | 1014.8 |
| 20260508060545 | 60 | 155 | 0.0 | 0.0 | 0.47 | 0.08 | 0.08 | 86 | 1015.1 |
| 20260508060043 | 61 | 157 | 0.0 | 1.0 | 0.00 | 0.00 | 0.00 | 82 | 1015.3 |
| 20260508055538 | 61 | 110 | 0.0 | 0.0 | 0.00 | 0.00 | 0.00 | 79 | 1015.0 |
| 20260508055035 | 61 | 108 | 0.0 | 0.0 | 0.00 | 0.00 | 0.00 | 77 | 1015.2 |
| 20260508054532 | 61 | 109 | 0.0 | 0.0 | 0.00 | 0.00 | 0.00 | 78 | 1015.0 |
| 20260508054029 | 61 | 134 | 0.0 | 0.0 | 0.00 | 0.00 | 0.00 | 78 | 1015.1 |
| 20260508053526 | 61 | 135 | 0.0 | 0.0 | 0.00 | 0.00 | 0.00 | 78 | 1014.8 |
| 20260508053025 | 61 | 128 | 0.0 | 0.0 | 0.00 | 0.00 | 0.00 | 79 | 1014.9 |
| 20260508052521 | 60 | 128 | 0.0 | 0.0 | 0.00 | 0.00 | 0.00 | 79 | 1015.0 |
| 20260508052018 | 60 | 128 | 0.0 | 0.0 | 0.00 | 0.00 | 0.00 | 80 | 1014.7 |
| 20260508051514 | 61 | 128 | 0.0 | 0.0 | 0.00 | 0.00 | 0.00 | 78 | 1015.1 |
| 20260508051009 | 61 | 128 | 0.0 | 0.0 | 0.00 | 0.00 | 0.00 | 77 | 1015.0 |
| 20260508050506 | 61 | 128 | 0.0 | 0.0 | 0.00 | 0.00 | 0.00 | 77 | 1015.0 |
| 20260508050003 | 60 | 128 | 0.0 | 0.0 | 0.00 | 0.00 | 0.00 | 77 | 1014.9 |
| 20260508045500 | 60 | 130 | 0.0 | 0.0 | 0.00 | 0.00 | 0.00 | 78 | 1015.2 |
| 20260508044957 | 61 | 130 | 0.0 | 0.0 | 0.00 | 0.00 | 0.00 | 78 | 1015.1 |
| 20260508044454 | 61 | 132 | 0.0 | 0.0 | 0.00 | 0.00 | 0.00 | 76 | 1015.0 |
| 20260508043949 | 62 | 141 | 0.0 | 0.0 | 0.00 | 0.00 | 0.00 | 74 | 1014.9 |
| 20260508043447 | 62 | 147 | 0.0 | 0.0 | 0.00 | 0.00 | 0.00 | 74 | 1015.0 |
| 20260508042943 | 62 | 147 | 0.0 | 0.0 | 0.00 | 0.00 | 0.00 | 75 | 1014.9 |